Aviation Digital Data Service (ADDS)

Output produced by METARs form (0020 UTC 17 July 2019)
found at http://www.aviationweather.gov/metar/data/
 
METAR text: VTBS 170000Z 27003KT 230V300 9999 FEW025 28/24 Q1004 NOSIG
Conditions at: VTBS (CHON BURI/SATTAH, TH) observed 0000 UTC 17 July 2019
Temperature: 28.0°C (82°F)
Dewpoint: 24.0°C (75°F) [RH = 79%]
Pressure (altimeter): 29.65 inches Hg (1004.0 mb)
Winds: from the W (270 degrees) at 3 MPH (3 knots; 1.5 m/s)
Visibility: 6 or more miles (10+ km)
Ceiling: at least 12,000 feet AGL
Clouds: few clouds at 2500 feet AGL
Weather: no significant weather observed at this time

METAR text: VTBS 162330Z 24003KT 9999 FEW030 27/24 Q1004 NOSIG
Conditions at: VTBS (CHON BURI/SATTAH, TH) observed 2330 UTC 16 July 2019
Temperature: 27.0°C (81°F)
Dewpoint: 24.0°C (75°F) [RH = 84%]
Pressure (altimeter): 29.65 inches Hg (1004.0 mb)
Winds: from the WSW (240 degrees) at 3 MPH (3 knots; 1.5 m/s)
Visibility: 6 or more miles (10+ km)
Ceiling: at least 12,000 feet AGL
Clouds: few clouds at 3000 feet AGL
Weather: no significant weather observed at this time

METAR text: VTBS 162300Z 27002KT 9999 FEW030 26/24 Q1004 NOSIG
Conditions at: VTBS (CHON BURI/SATTAH, TH) observed 2300 UTC 16 July 2019
Temperature: 26.0°C (79°F)
Dewpoint: 24.0°C (75°F) [RH = 89%]
Pressure (altimeter): 29.65 inches Hg (1004.0 mb)
Winds: from the W (270 degrees) at 2 MPH (2 knots; 1.0 m/s)
Visibility: 6 or more miles (10+ km)
Ceiling: at least 12,000 feet AGL
Clouds: few clouds at 3000 feet AGL
Weather: no significant weather observed at this time

METAR text: VTBS 162230Z 29002KT 9999 FEW030 27/23 Q1003 NOSIG
Conditions at: VTBS (CHON BURI/SATTAH, TH) observed 2230 UTC 16 July 2019
Temperature: 27.0°C (81°F)
Dewpoint: 23.0°C (73°F) [RH = 79%]
Pressure (altimeter): 29.62 inches Hg (1003.0 mb)
Winds: from the WNW (290 degrees) at 2 MPH (2 knots; 1.0 m/s)
Visibility: 6 or more miles (10+ km)
Ceiling: at least 12,000 feet AGL
Clouds: few clouds at 3000 feet AGL
Weather: no significant weather observed at this time

METAR text: VTBS 162200Z 25004KT 9999 FEW030 27/23 Q1003 NOSIG
Conditions at: VTBS (CHON BURI/SATTAH, TH) observed 2200 UTC 16 July 2019
Temperature: 27.0°C (81°F)
Dewpoint: 23.0°C (73°F) [RH = 79%]
Pressure (altimeter): 29.62 inches Hg (1003.0 mb)
Winds: from the WSW (250 degrees) at 5 MPH (4 knots; 2.1 m/s)
Visibility: 6 or more miles (10+ km)
Ceiling: at least 12,000 feet AGL
Clouds: few clouds at 3000 feet AGL
Weather: no significant weather observed at this time

METAR text: VTBS 162130Z 25004KT 9999 FEW030 28/23 Q1004 NOSIG
Conditions at: VTBS (CHON BURI/SATTAH, TH) observed 2130 UTC 16 July 2019
Temperature: 28.0°C (82°F)
Dewpoint: 23.0°C (73°F) [RH = 74%]
Pressure (altimeter): 29.65 inches Hg (1004.0 mb)
Winds: from the WSW (250 degrees) at 5 MPH (4 knots; 2.1 m/s)
Visibility: 6 or more miles (10+ km)
Ceiling: at least 12,000 feet AGL
Clouds: few clouds at 3000 feet AGL
Weather: no significant weather observed at this time

METAR text: VTBS 162100Z 25004KT 9999 FEW030 28/23 Q1004 NOSIG
Conditions at: VTBS (CHON BURI/SATTAH, TH) observed 2100 UTC 16 July 2019
Temperature: 28.0°C (82°F)
Dewpoint: 23.0°C (73°F) [RH = 74%]
Pressure (altimeter): 29.65 inches Hg (1004.0 mb)
Winds: from the WSW (250 degrees) at 5 MPH (4 knots; 2.1 m/s)
Visibility: 6 or more miles (10+ km)
Ceiling: at least 12,000 feet AGL
Clouds: few clouds at 3000 feet AGL
Weather: no significant weather observed at this time

METAR text: VTBS 162030Z 25006KT 9999 FEW030 28/22 Q1004 NOSIG
Conditions at: VTBS (CHON BURI/SATTAH, TH) observed 2030 UTC 16 July 2019
Temperature: 28.0°C (82°F)
Dewpoint: 22.0°C (72°F) [RH = 70%]
Pressure (altimeter): 29.65 inches Hg (1004.0 mb)
Winds: from the WSW (250 degrees) at 7 MPH (6 knots; 3.1 m/s)
Visibility: 6 or more miles (10+ km)
Ceiling: at least 12,000 feet AGL
Clouds: few clouds at 3000 feet AGL
Weather: no significant weather observed at this time

METAR text: VTBS 162000Z 25006KT 9999 FEW045 28/23 Q1004 NOSIG
Conditions at: VTBS (CHON BURI/SATTAH, TH) observed 2000 UTC 16 July 2019
Temperature: 28.0°C (82°F)
Dewpoint: 23.0°C (73°F) [RH = 74%]
Pressure (altimeter): 29.65 inches Hg (1004.0 mb)
Winds: from the WSW (250 degrees) at 7 MPH (6 knots; 3.1 m/s)
Visibility: 6 or more miles (10+ km)
Ceiling: at least 12,000 feet AGL
Clouds: few clouds at 4500 feet AGL
Weather: no significant weather observed at this time

METAR text: VTBS 161930Z 26006KT 9999 FEW045 28/23 Q1004 NOSIG
Conditions at: VTBS (CHON BURI/SATTAH, TH) observed 1930 UTC 16 July 2019
Temperature: 28.0°C (82°F)
Dewpoint: 23.0°C (73°F) [RH = 74%]
Pressure (altimeter): 29.65 inches Hg (1004.0 mb)
Winds: from the W (260 degrees) at 7 MPH (6 knots; 3.1 m/s)
Visibility: 6 or more miles (10+ km)
Ceiling: at least 12,000 feet AGL
Clouds: few clouds at 4500 feet AGL
Weather: no significant weather observed at this time

METAR text: VTBS 161900Z 27006KT 9999 FEW045 28/23 Q1004 NOSIG
Conditions at: VTBS (CHON BURI/SATTAH, TH) observed 1900 UTC 16 July 2019
Temperature: 28.0°C (82°F)
Dewpoint: 23.0°C (73°F) [RH = 74%]
Pressure (altimeter): 29.65 inches Hg (1004.0 mb)
Winds: from the W (270 degrees) at 7 MPH (6 knots; 3.1 m/s)
Visibility: 6 or more miles (10+ km)
Ceiling: at least 12,000 feet AGL
Clouds: few clouds at 4500 feet AGL
Weather: no significant weather observed at this time

METAR text: VTBS 161830Z 26007KT 9999 FEW045 28/23 Q1005 NOSIG
Conditions at: VTBS (CHON BURI/SATTAH, TH) observed 1830 UTC 16 July 2019
Temperature: 28.0°C (82°F)
Dewpoint: 23.0°C (73°F) [RH = 74%]
Pressure (altimeter): 29.68 inches Hg (1005.0 mb)
Winds: from the W (260 degrees) at 8 MPH (7 knots; 3.6 m/s)
Visibility: 6 or more miles (10+ km)
Ceiling: at least 12,000 feet AGL
Clouds: few clouds at 4500 feet AGL
Weather: no significant weather observed at this time

METAR text: VTBS 161800Z 25008KT 9999 FEW045 SCT100 29/23 Q1005 NOSIG
Conditions at: VTBS (CHON BURI/SATTAH, TH) observed 1800 UTC 16 July 2019
Temperature: 29.0°C (84°F)
Dewpoint: 23.0°C (73°F) [RH = 70%]
Pressure (altimeter): 29.68 inches Hg (1005.0 mb)
Winds: from the WSW (250 degrees) at 9 MPH (8 knots; 4.1 m/s)
Visibility: 6 or more miles (10+ km)
Ceiling: at least 12,000 feet AGL
Clouds: few clouds at 4500 feet AGL
scattered clouds at 10000 feet AGL
Weather: no significant weather observed at this time

METAR text: VTBS 161730Z 26008KT 9999 FEW040 SCT100 29/24 Q1005 NOSIG
Conditions at: VTBS (CHON BURI/SATTAH, TH) observed 1730 UTC 16 July 2019
Temperature: 29.0°C (84°F)
Dewpoint: 24.0°C (75°F) [RH = 74%]
Pressure (altimeter): 29.68 inches Hg (1005.0 mb)
Winds: from the W (260 degrees) at 9 MPH (8 knots; 4.1 m/s)
Visibility: 6 or more miles (10+ km)
Ceiling: at least 12,000 feet AGL
Clouds: few clouds at 4000 feet AGL
scattered clouds at 10000 feet AGL
Weather: no significant weather observed at this time

METAR text: VTBS 161700Z 24006KT 210V270 9999 FEW035 29/25 Q1005 NOSIG
Conditions at: VTBS (CHON BURI/SATTAH, TH) observed 1700 UTC 16 July 2019
Temperature: 29.0°C (84°F)
Dewpoint: 25.0°C (77°F) [RH = 79%]
Pressure (altimeter): 29.68 inches Hg (1005.0 mb)
Winds: from the WSW (240 degrees) at 7 MPH (6 knots; 3.1 m/s)
Visibility: 6 or more miles (10+ km)
Ceiling: at least 12,000 feet AGL
Clouds: few clouds at 3500 feet AGL
Weather: no significant weather observed at this time

METAR text: VTBS 161630Z 21005KT 9999 FEW035 29/25 Q1005 NOSIG
Conditions at: VTBS (CHON BURI/SATTAH, TH) observed 1630 UTC 16 July 2019
Temperature: 29.0°C (84°F)
Dewpoint: 25.0°C (77°F) [RH = 79%]
Pressure (altimeter): 29.68 inches Hg (1005.0 mb)
Winds: from the SSW (210 degrees) at 6 MPH (5 knots; 2.6 m/s)
Visibility: 6 or more miles (10+ km)
Ceiling: at least 12,000 feet AGL
Clouds: few clouds at 3500 feet AGL
Weather: no significant weather observed at this time

METAR text: VTBS 161600Z 21008KT 9999 FEW035 29/25 Q1005 NOSIG
Conditions at: VTBS (CHON BURI/SATTAH, TH) observed 1600 UTC 16 July 2019
Temperature: 29.0°C (84°F)
Dewpoint: 25.0°C (77°F) [RH = 79%]
Pressure (altimeter): 29.68 inches Hg (1005.0 mb)
Winds: from the SSW (210 degrees) at 9 MPH (8 knots; 4.1 m/s)
Visibility: 6 or more miles (10+ km)
Ceiling: at least 12,000 feet AGL
Clouds: few clouds at 3500 feet AGL
Weather: no significant weather observed at this time

METAR text: VTBS 161530Z 20008KT 9999 FEW035 29/25 Q1005 NOSIG
Conditions at: VTBS (CHON BURI/SATTAH, TH) observed 1530 UTC 16 July 2019
Temperature: 29.0°C (84°F)
Dewpoint: 25.0°C (77°F) [RH = 79%]
Pressure (altimeter): 29.68 inches Hg (1005.0 mb)
Winds: from the SSW (200 degrees) at 9 MPH (8 knots; 4.1 m/s)
Visibility: 6 or more miles (10+ km)
Ceiling: at least 12,000 feet AGL
Clouds: few clouds at 3500 feet AGL
Weather: no significant weather observed at this time

METAR text: VTBS 161500Z 20008KT 9999 FEW035 29/25 Q1005 NOSIG
Conditions at: VTBS (CHON BURI/SATTAH, TH) observed 1500 UTC 16 July 2019
Temperature: 29.0°C (84°F)
Dewpoint: 25.0°C (77°F) [RH = 79%]
Pressure (altimeter): 29.68 inches Hg (1005.0 mb)
Winds: from the SSW (200 degrees) at 9 MPH (8 knots; 4.1 m/s)
Visibility: 6 or more miles (10+ km)
Ceiling: at least 12,000 feet AGL
Clouds: few clouds at 3500 feet AGL
Weather: no significant weather observed at this time

METAR text: VTBS 161430Z 20009KT 9999 FEW035 29/25 Q1005 NOSIG
Conditions at: VTBS (CHON BURI/SATTAH, TH) observed 1430 UTC 16 July 2019
Temperature: 29.0°C (84°F)
Dewpoint: 25.0°C (77°F) [RH = 79%]
Pressure (altimeter): 29.68 inches Hg (1005.0 mb)
Winds: from the SSW (200 degrees) at 10 MPH (9 knots; 4.6 m/s)
Visibility: 6 or more miles (10+ km)
Ceiling: at least 12,000 feet AGL
Clouds: few clouds at 3500 feet AGL
Weather: no significant weather observed at this time

METAR text: VTBS 161400Z 20009KT 9999 FEW030 SCT055 29/25 Q1004 NOSIG
Conditions at: VTBS (CHON BURI/SATTAH, TH) observed 1400 UTC 16 July 2019
Temperature: 29.0°C (84°F)
Dewpoint: 25.0°C (77°F) [RH = 79%]
Pressure (altimeter): 29.65 inches Hg (1004.0 mb)
Winds: from the SSW (200 degrees) at 10 MPH (9 knots; 4.6 m/s)
Visibility: 6 or more miles (10+ km)
Ceiling: at least 12,000 feet AGL
Clouds: few clouds at 3000 feet AGL
scattered clouds at 5500 feet AGL
Weather: no significant weather observed at this time

METAR text: VTBS 161330Z 20009KT 9999 FEW030 SCT065 29/25 Q1004 NOSIG
Conditions at: VTBS (CHON BURI/SATTAH, TH) observed 1330 UTC 16 July 2019
Temperature: 29.0°C (84°F)
Dewpoint: 25.0°C (77°F) [RH = 79%]
Pressure (altimeter): 29.65 inches Hg (1004.0 mb)
Winds: from the SSW (200 degrees) at 10 MPH (9 knots; 4.6 m/s)
Visibility: 6 or more miles (10+ km)
Ceiling: at least 12,000 feet AGL
Clouds: few clouds at 3000 feet AGL
scattered clouds at 6500 feet AGL
Weather: no significant weather observed at this time

METAR text: VTBS 161300Z 19009KT 9999 FEW020 30/25 Q1003 NOSIG
Conditions at: VTBS (CHON BURI/SATTAH, TH) observed 1300 UTC 16 July 2019
Temperature: 30.0°C (86°F)
Dewpoint: 25.0°C (77°F) [RH = 75%]
Pressure (altimeter): 29.62 inches Hg (1003.0 mb)
Winds: from the S (190 degrees) at 10 MPH (9 knots; 4.6 m/s)
Visibility: 6 or more miles (10+ km)
Ceiling: at least 12,000 feet AGL
Clouds: few clouds at 2000 feet AGL
Weather: no significant weather observed at this time

METAR text: VTBS 161230Z 20009KT 9999 FEW020 30/25 Q1003 NOSIG
Conditions at: VTBS (CHON BURI/SATTAH, TH) observed 1230 UTC 16 July 2019
Temperature: 30.0°C (86°F)
Dewpoint: 25.0°C (77°F) [RH = 75%]
Pressure (altimeter): 29.62 inches Hg (1003.0 mb)
Winds: from the SSW (200 degrees) at 10 MPH (9 knots; 4.6 m/s)
Visibility: 6 or more miles (10+ km)
Ceiling: at least 12,000 feet AGL
Clouds: few clouds at 2000 feet AGL
Weather: no significant weather observed at this time

METAR text: VTBS 161200Z 20010KT 9999 FEW020 30/25 Q1003 NOSIG
Conditions at: VTBS (CHON BURI/SATTAH, TH) observed 1200 UTC 16 July 2019
Temperature: 30.0°C (86°F)
Dewpoint: 25.0°C (77°F) [RH = 75%]
Pressure (altimeter): 29.62 inches Hg (1003.0 mb)
Winds: from the SSW (200 degrees) at 12 MPH (10 knots; 5.1 m/s)
Visibility: 6 or more miles (10+ km)
Ceiling: at least 12,000 feet AGL
Clouds: few clouds at 2000 feet AGL
Weather: no significant weather observed at this time

METAR text: VTBS 161130Z 20011KT 9999 FEW020 31/25 Q1002 NOSIG
Conditions at: VTBS (CHON BURI/SATTAH, TH) observed 1130 UTC 16 July 2019
Temperature: 31.0°C (88°F)
Dewpoint: 25.0°C (77°F) [RH = 71%]
Pressure (altimeter): 29.59 inches Hg (1002.0 mb)
Winds: from the SSW (200 degrees) at 13 MPH (11 knots; 5.7 m/s)
Visibility: 6 or more miles (10+ km)
Ceiling: at least 12,000 feet AGL
Clouds: few clouds at 2000 feet AGL
Weather: no significant weather observed at this time

METAR text: VTBS 161100Z 20010KT 9999 FEW020 32/25 Q1002 NOSIG
Conditions at: VTBS (CHON BURI/SATTAH, TH) observed 1100 UTC 16 July 2019
Temperature: 32.0°C (90°F)
Dewpoint: 25.0°C (77°F) [RH = 67%]
Pressure (altimeter): 29.59 inches Hg (1002.0 mb)
Winds: from the SSW (200 degrees) at 12 MPH (10 knots; 5.1 m/s)
Visibility: 6 or more miles (10+ km)
Ceiling: at least 12,000 feet AGL
Clouds: few clouds at 2000 feet AGL
Weather: no significant weather observed at this time

METAR text: VTBS 161030Z 21011KT 9999 FEW020 32/24 Q1002 NOSIG
Conditions at: VTBS (CHON BURI/SATTAH, TH) observed 1030 UTC 16 July 2019
Temperature: 32.0°C (90°F)
Dewpoint: 24.0°C (75°F) [RH = 63%]
Pressure (altimeter): 29.59 inches Hg (1002.0 mb)
Winds: from the SSW (210 degrees) at 13 MPH (11 knots; 5.7 m/s)
Visibility: 6 or more miles (10+ km)
Ceiling: at least 12,000 feet AGL
Clouds: few clouds at 2000 feet AGL
Weather: no significant weather observed at this time

METAR text: VTBS 161000Z 19010KT 9999 FEW020 SCT040 33/25 Q1002 NOSIG
Conditions at: VTBS (CHON BURI/SATTAH, TH) observed 1000 UTC 16 July 2019
Temperature: 33.0°C (91°F)
Dewpoint: 25.0°C (77°F) [RH = 63%]
Pressure (altimeter): 29.59 inches Hg (1002.0 mb)
Winds: from the S (190 degrees) at 12 MPH (10 knots; 5.1 m/s)
Visibility: 6 or more miles (10+ km)
Ceiling: at least 12,000 feet AGL
Clouds: few clouds at 2000 feet AGL
scattered clouds at 4000 feet AGL
Weather: no significant weather observed at this time

METAR text: VTBS 160930Z 18011KT 9999 FEW020 SCT040 32/24 Q1002 NOSIG
Conditions at: VTBS (CHON BURI/SATTAH, TH) observed 0930 UTC 16 July 2019
Temperature: 32.0°C (90°F)
Dewpoint: 24.0°C (75°F) [RH = 63%]
Pressure (altimeter): 29.59 inches Hg (1002.0 mb)
Winds: from the S (180 degrees) at 13 MPH (11 knots; 5.7 m/s)
Visibility: 6 or more miles (10+ km)
Ceiling: at least 12,000 feet AGL
Clouds: few clouds at 2000 feet AGL
scattered clouds at 4000 feet AGL
Weather: no significant weather observed at this time

METAR text: VTBS 160900Z 19009KT 160V230 9999 FEW020 SCT040 33/24 Q1002 NOSIG
Conditions at: VTBS (CHON BURI/SATTAH, TH) observed 0900 UTC 16 July 2019
Temperature: 33.0°C (91°F)
Dewpoint: 24.0°C (75°F) [RH = 59%]
Pressure (altimeter): 29.59 inches Hg (1002.0 mb)
Winds: from the S (190 degrees) at 10 MPH (9 knots; 4.6 m/s)
Visibility: 6 or more miles (10+ km)
Ceiling: at least 12,000 feet AGL
Clouds: few clouds at 2000 feet AGL
scattered clouds at 4000 feet AGL
Weather: no significant weather observed at this time

METAR text: VTBS 160830Z 23005KT 190V300 9999 FEW025 34/24 Q1002 NOSIG
Conditions at: VTBS (CHON BURI/SATTAH, TH) observed 0830 UTC 16 July 2019
Temperature: 34.0°C (93°F)
Dewpoint: 24.0°C (75°F) [RH = 56%]
Pressure (altimeter): 29.59 inches Hg (1002.0 mb)
Winds: from the SW (230 degrees) at 6 MPH (5 knots; 2.6 m/s)
Visibility: 6 or more miles (10+ km)
Ceiling: at least 12,000 feet AGL
Clouds: few clouds at 2500 feet AGL
Weather: no significant weather observed at this time

METAR text: VTBS 160800Z VRB04KT 9999 FEW025 33/24 Q1003 NOSIG
Conditions at: VTBS (CHON BURI/SATTAH, TH) observed 0800 UTC 16 July 2019
Temperature: 33.0°C (91°F)
Dewpoint: 24.0°C (75°F) [RH = 59%]
Pressure (altimeter): 29.62 inches Hg (1003.0 mb)
Winds: variable direction winds at 5 MPH (4 knots; 2.1 m/s)
Visibility: 6 or more miles (10+ km)
Ceiling: at least 12,000 feet AGL
Clouds: few clouds at 2500 feet AGL
Weather: no significant weather observed at this time

METAR text: VTBS 160730Z 21007KT 180V260 9999 FEW025 33/24 Q1003 NOSIG
Conditions at: VTBS (CHON BURI/SATTAH, TH) observed 0730 UTC 16 July 2019
Temperature: 33.0°C (91°F)
Dewpoint: 24.0°C (75°F) [RH = 59%]
Pressure (altimeter): 29.62 inches Hg (1003.0 mb)
Winds: from the SSW (210 degrees) at 8 MPH (7 knots; 3.6 m/s)
Visibility: 6 or more miles (10+ km)
Ceiling: at least 12,000 feet AGL
Clouds: few clouds at 2500 feet AGL
Weather: no significant weather observed at this time

METAR text: VTBS 160700Z 22009KT 190V260 9999 FEW025 34/24 Q1004 NOSIG
Conditions at: VTBS (CHON BURI/SATTAH, TH) observed 0700 UTC 16 July 2019
Temperature: 34.0°C (93°F)
Dewpoint: 24.0°C (75°F) [RH = 56%]
Pressure (altimeter): 29.65 inches Hg (1004.0 mb)
Winds: from the SW (220 degrees) at 10 MPH (9 knots; 4.6 m/s)
Visibility: 6 or more miles (10+ km)
Ceiling: at least 12,000 feet AGL
Clouds: few clouds at 2500 feet AGL
Weather: no significant weather observed at this time

METAR text: VTBS 160630Z 24009KT 180V270 9999 FEW025 SCT045 33/24 Q1004 NOSIG
Conditions at: VTBS (CHON BURI/SATTAH, TH) observed 0630 UTC 16 July 2019
Temperature: 33.0°C (91°F)
Dewpoint: 24.0°C (75°F) [RH = 59%]
Pressure (altimeter): 29.65 inches Hg (1004.0 mb)
Winds: from the WSW (240 degrees) at 10 MPH (9 knots; 4.6 m/s)
Visibility: 6 or more miles (10+ km)
Ceiling: at least 12,000 feet AGL
Clouds: few clouds at 2500 feet AGL
scattered clouds at 4500 feet AGL
Weather: no significant weather observed at this time

METAR text: VTBS 160600Z 19010KT 160V230 9999 FEW025 SCT045 33/24 Q1005 NOSIG
Conditions at: VTBS (CHON BURI/SATTAH, TH) observed 0600 UTC 16 July 2019
Temperature: 33.0°C (91°F)
Dewpoint: 24.0°C (75°F) [RH = 59%]
Pressure (altimeter): 29.68 inches Hg (1005.0 mb)
Winds: from the S (190 degrees) at 12 MPH (10 knots; 5.1 m/s)
Visibility: 6 or more miles (10+ km)
Ceiling: at least 12,000 feet AGL
Clouds: few clouds at 2500 feet AGL
scattered clouds at 4500 feet AGL
Weather: no significant weather observed at this time

METAR text: VTBS 160530Z 23007KT 150V300 9999 FEW025 SCT045 34/24 Q1005 NOSIG
Conditions at: VTBS (CHON BURI/SATTAH, TH) observed 0530 UTC 16 July 2019
Temperature: 34.0°C (93°F)
Dewpoint: 24.0°C (75°F) [RH = 56%]
Pressure (altimeter): 29.68 inches Hg (1005.0 mb)
Winds: from the SW (230 degrees) at 8 MPH (7 knots; 3.6 m/s)
Visibility: 6 or more miles (10+ km)
Ceiling: at least 12,000 feet AGL
Clouds: few clouds at 2500 feet AGL
scattered clouds at 4500 feet AGL
Weather: no significant weather observed at this time

METAR text: VTBS 160500Z 23008KT 190V290 9999 FEW025 SCT045 33/24 Q1006 NOSIG
Conditions at: VTBS (CHON BURI/SATTAH, TH) observed 0500 UTC 16 July 2019
Temperature: 33.0°C (91°F)
Dewpoint: 24.0°C (75°F) [RH = 59%]
Pressure (altimeter): 29.70 inches Hg (1006.0 mb)
Winds: from the SW (230 degrees) at 9 MPH (8 knots; 4.1 m/s)
Visibility: 6 or more miles (10+ km)
Ceiling: at least 12,000 feet AGL
Clouds: few clouds at 2500 feet AGL
scattered clouds at 4500 feet AGL
Weather: no significant weather observed at this time

METAR text: VTBS 160430Z 24007KT 170V300 9999 FEW025 SCT045 32/23 Q1006 NOSIG
Conditions at: VTBS (CHON BURI/SATTAH, TH) observed 0430 UTC 16 July 2019
Temperature: 32.0°C (90°F)
Dewpoint: 23.0°C (73°F) [RH = 59%]
Pressure (altimeter): 29.70 inches Hg (1006.0 mb)
Winds: from the WSW (240 degrees) at 8 MPH (7 knots; 3.6 m/s)
Visibility: 6 or more miles (10+ km)
Ceiling: at least 12,000 feet AGL
Clouds: few clouds at 2500 feet AGL
scattered clouds at 4500 feet AGL
Weather: no significant weather observed at this time

METAR text: VTBS 160400Z 25006KT 190V280 9999 FEW030 SCT045 33/23 Q1006 NOSIG
Conditions at: VTBS (CHON BURI/SATTAH, TH) observed 0400 UTC 16 July 2019
Temperature: 33.0°C (91°F)
Dewpoint: 23.0°C (73°F) [RH = 56%]
Pressure (altimeter): 29.70 inches Hg (1006.0 mb)
Winds: from the WSW (250 degrees) at 7 MPH (6 knots; 3.1 m/s)
Visibility: 6 or more miles (10+ km)
Ceiling: at least 12,000 feet AGL
Clouds: few clouds at 3000 feet AGL
scattered clouds at 4500 feet AGL
Weather: no significant weather observed at this time

METAR text: VTBS 160330Z 28006KT 220V330 9999 FEW040 32/23 Q1006 NOSIG
Conditions at: VTBS (CHON BURI/SATTAH, TH) observed 0330 UTC 16 July 2019
Temperature: 32.0°C (90°F)
Dewpoint: 23.0°C (73°F) [RH = 59%]
Pressure (altimeter): 29.70 inches Hg (1006.0 mb)
Winds: from the W (280 degrees) at 7 MPH (6 knots; 3.1 m/s)
Visibility: 6 or more miles (10+ km)
Ceiling: at least 12,000 feet AGL
Clouds: few clouds at 4000 feet AGL
Weather: no significant weather observed at this time

METAR text: VTBS 160300Z 24005KT 200V310 CAVOK 32/23 Q1006 NOSIG
Conditions at: VTBS (CHON BURI/SATTAH, TH) observed 0300 UTC 16 July 2019
Temperature: 32.0°C (90°F)
Dewpoint: 23.0°C (73°F) [RH = 59%]
Pressure (altimeter): 29.70 inches Hg (1006.0 mb)
Winds: from the WSW (240 degrees) at 6 MPH (5 knots; 2.6 m/s)
Visibility: 6 or more miles (10+ km)
Ceiling: ceiling and visibility are OK
Clouds: unknown
Weather: no significant weather observed at this time

METAR text: VTBS 160230Z 22006KT 170V320 CAVOK 31/23 Q1006 NOSIG
Conditions at: VTBS (CHON BURI/SATTAH, TH) observed 0230 UTC 16 July 2019
Temperature: 31.0°C (88°F)
Dewpoint: 23.0°C (73°F) [RH = 63%]
Pressure (altimeter): 29.70 inches Hg (1006.0 mb)
Winds: from the SW (220 degrees) at 7 MPH (6 knots; 3.1 m/s)
Visibility: 6 or more miles (10+ km)
Ceiling: ceiling and visibility are OK
Clouds: unknown
Weather: no significant weather observed at this time

METAR text: VTBS 160200Z 23005KT 200V290 CAVOK 30/23 Q1007 NOSIG
Conditions at: VTBS (CHON BURI/SATTAH, TH) observed 0200 UTC 16 July 2019
Temperature: 30.0°C (86°F)
Dewpoint: 23.0°C (73°F) [RH = 66%]
Pressure (altimeter): 29.73 inches Hg (1007.0 mb)
Winds: from the SW (230 degrees) at 6 MPH (5 knots; 2.6 m/s)
Visibility: 6 or more miles (10+ km)
Ceiling: ceiling and visibility are OK
Clouds: unknown
Weather: no significant weather observed at this time

METAR text: VTBS 160130Z 24005KT CAVOK 30/23 Q1007 NOSIG
Conditions at: VTBS (CHON BURI/SATTAH, TH) observed 0130 UTC 16 July 2019
Temperature: 30.0°C (86°F)
Dewpoint: 23.0°C (73°F) [RH = 66%]
Pressure (altimeter): 29.73 inches Hg (1007.0 mb)
Winds: from the WSW (240 degrees) at 6 MPH (5 knots; 2.6 m/s)
Visibility: 6 or more miles (10+ km)
Ceiling: ceiling and visibility are OK
Clouds: unknown
Weather: no significant weather observed at this time

METAR text: VTBS 160100Z 26004KT CAVOK 29/23 Q1006 NOSIG
Conditions at: VTBS (CHON BURI/SATTAH, TH) observed 0100 UTC 16 July 2019
Temperature: 29.0°C (84°F)
Dewpoint: 23.0°C (73°F) [RH = 70%]
Pressure (altimeter): 29.70 inches Hg (1006.0 mb)
Winds: from the W (260 degrees) at 5 MPH (4 knots; 2.1 m/s)
Visibility: 6 or more miles (10+ km)
Ceiling: ceiling and visibility are OK
Clouds: unknown
Weather: no significant weather observed at this time

METAR text: VTBS 160030Z 25004KT 220V290 CAVOK 28/24 Q1006 NOSIG
Conditions at: VTBS (CHON BURI/SATTAH, TH) observed 0030 UTC 16 July 2019
Temperature: 28.0°C (82°F)
Dewpoint: 24.0°C (75°F) [RH = 79%]
Pressure (altimeter): 29.70 inches Hg (1006.0 mb)
Winds: from the WSW (250 degrees) at 5 MPH (4 knots; 2.1 m/s)
Visibility: 6 or more miles (10+ km)
Ceiling: ceiling and visibility are OK
Clouds: unknown
Weather: no significant weather observed at this time

METAR text: VTBS 160000Z VRB02KT CAVOK 27/24 Q1006 NOSIG
Conditions at: VTBS (CHON BURI/SATTAH, TH) observed 0000 UTC 16 July 2019
Temperature: 27.0°C (81°F)
Dewpoint: 24.0°C (75°F) [RH = 84%]
Pressure (altimeter): 29.70 inches Hg (1006.0 mb)
Winds: variable direction winds at 2 MPH (2 knots; 1.0 m/s)
Visibility: 6 or more miles (10+ km)
Ceiling: ceiling and visibility are OK
Clouds: unknown
Weather: no significant weather observed at this time

METAR text: VTBS 152330Z 24003KT CAVOK 26/23 Q1006 NOSIG
Conditions at: VTBS (CHON BURI/SATTAH, TH) observed 2330 UTC 15 July 2019
Temperature: 26.0°C (79°F)
Dewpoint: 23.0°C (73°F) [RH = 84%]
Pressure (altimeter): 29.70 inches Hg (1006.0 mb)
Winds: from the WSW (240 degrees) at 3 MPH (3 knots; 1.5 m/s)
Visibility: 6 or more miles (10+ km)
Ceiling: ceiling and visibility are OK
Clouds: unknown
Weather: no significant weather observed at this time

METAR text: VTBS 152300Z 24002KT 9000 NSC 26/23 Q1005 NOSIG
Conditions at: VTBS (CHON BURI/SATTAH, TH) observed 2300 UTC 15 July 2019
Temperature: 26.0°C (79°F)
Dewpoint: 23.0°C (73°F) [RH = 84%]
Pressure (altimeter): 29.68 inches Hg (1005.0 mb)
Winds: from the WSW (240 degrees) at 2 MPH (2 knots; 1.0 m/s)
Visibility: 6 miles ( 9 km)
Ceiling: at least 12,000 feet AGL
Clouds: sky clear below 12,000 feet AGL
Weather: no significant weather observed at this time

METAR text: VTBS 152230Z 25002KT 9000 NSC 26/23 Q1005 NOSIG
Conditions at: VTBS (CHON BURI/SATTAH, TH) observed 2230 UTC 15 July 2019
Temperature: 26.0°C (79°F)
Dewpoint: 23.0°C (73°F) [RH = 84%]
Pressure (altimeter): 29.68 inches Hg (1005.0 mb)
Winds: from the WSW (250 degrees) at 2 MPH (2 knots; 1.0 m/s)
Visibility: 6 miles ( 9 km)
Ceiling: at least 12,000 feet AGL
Clouds: sky clear below 12,000 feet AGL
Weather: no significant weather observed at this time

METAR text: VTBS 152200Z 23004KT 8000 NSC 25/23 Q1005 NOSIG
Conditions at: VTBS (CHON BURI/SATTAH, TH) observed 2200 UTC 15 July 2019
Temperature: 25.0°C (77°F)
Dewpoint: 23.0°C (73°F) [RH = 89%]
Pressure (altimeter): 29.68 inches Hg (1005.0 mb)
Winds: from the SW (230 degrees) at 5 MPH (4 knots; 2.1 m/s)
Visibility: 5 miles ( 8 km)
Ceiling: at least 12,000 feet AGL
Clouds: sky clear below 12,000 feet AGL
Weather: no significant weather observed at this time

METAR text: VTBS 152130Z 26004KT 8000 FEW045 25/23 Q1005 NOSIG
Conditions at: VTBS (CHON BURI/SATTAH, TH) observed 2130 UTC 15 July 2019
Temperature: 25.0°C (77°F)
Dewpoint: 23.0°C (73°F) [RH = 89%]
Pressure (altimeter): 29.68 inches Hg (1005.0 mb)
Winds: from the W (260 degrees) at 5 MPH (4 knots; 2.1 m/s)
Visibility: 5 miles ( 8 km)
Ceiling: at least 12,000 feet AGL
Clouds: few clouds at 4500 feet AGL
Weather: no significant weather observed at this time

METAR text: VTBS 152100Z 25003KT 8000 FEW040 26/24 Q1005 NOSIG
Conditions at: VTBS (CHON BURI/SATTAH, TH) observed 2100 UTC 15 July 2019
Temperature: 26.0°C (79°F)
Dewpoint: 24.0°C (75°F) [RH = 89%]
Pressure (altimeter): 29.68 inches Hg (1005.0 mb)
Winds: from the WSW (250 degrees) at 3 MPH (3 knots; 1.5 m/s)
Visibility: 5 miles ( 8 km)
Ceiling: at least 12,000 feet AGL
Clouds: few clouds at 4000 feet AGL
Weather: no significant weather observed at this time

METAR text: VTBS 152030Z 26003KT 9000 FEW030 26/24 Q1005 NOSIG
Conditions at: VTBS (CHON BURI/SATTAH, TH) observed 2030 UTC 15 July 2019
Temperature: 26.0°C (79°F)
Dewpoint: 24.0°C (75°F) [RH = 89%]
Pressure (altimeter): 29.68 inches Hg (1005.0 mb)
Winds: from the W (260 degrees) at 3 MPH (3 knots; 1.5 m/s)
Visibility: 6 miles ( 9 km)
Ceiling: at least 12,000 feet AGL
Clouds: few clouds at 3000 feet AGL
Weather: no significant weather observed at this time

METAR text: VTBS 152000Z 24003KT 9000 FEW020 26/24 Q1005 NOSIG
Conditions at: VTBS (CHON BURI/SATTAH, TH) observed 2000 UTC 15 July 2019
Temperature: 26.0°C (79°F)
Dewpoint: 24.0°C (75°F) [RH = 89%]
Pressure (altimeter): 29.68 inches Hg (1005.0 mb)
Winds: from the WSW (240 degrees) at 3 MPH (3 knots; 1.5 m/s)
Visibility: 6 miles ( 9 km)
Ceiling: at least 12,000 feet AGL
Clouds: few clouds at 2000 feet AGL
Weather: no significant weather observed at this time

METAR text: VTBS 151930Z 22003KT 9000 FEW020 26/24 Q1005 NOSIG
Conditions at: VTBS (CHON BURI/SATTAH, TH) observed 1930 UTC 15 July 2019
Temperature: 26.0°C (79°F)
Dewpoint: 24.0°C (75°F) [RH = 89%]
Pressure (altimeter): 29.68 inches Hg (1005.0 mb)
Winds: from the SW (220 degrees) at 3 MPH (3 knots; 1.5 m/s)
Visibility: 6 miles ( 9 km)
Ceiling: at least 12,000 feet AGL
Clouds: few clouds at 2000 feet AGL
Weather: no significant weather observed at this time

METAR text: VTBS 151900Z 26005KT 9000 FEW020 26/24 Q1006 NOSIG
Conditions at: VTBS (CHON BURI/SATTAH, TH) observed 1900 UTC 15 July 2019
Temperature: 26.0°C (79°F)
Dewpoint: 24.0°C (75°F) [RH = 89%]
Pressure (altimeter): 29.70 inches Hg (1006.0 mb)
Winds: from the W (260 degrees) at 6 MPH (5 knots; 2.6 m/s)
Visibility: 6 miles ( 9 km)
Ceiling: at least 12,000 feet AGL
Clouds: few clouds at 2000 feet AGL
Weather: no significant weather observed at this time

METAR text: VTBS 151830Z 23005KT 9000 FEW020 26/24 Q1006 NOSIG
Conditions at: VTBS (CHON BURI/SATTAH, TH) observed 1830 UTC 15 July 2019
Temperature: 26.0°C (79°F)
Dewpoint: 24.0°C (75°F) [RH = 89%]
Pressure (altimeter): 29.70 inches Hg (1006.0 mb)
Winds: from the SW (230 degrees) at 6 MPH (5 knots; 2.6 m/s)
Visibility: 6 miles ( 9 km)
Ceiling: at least 12,000 feet AGL
Clouds: few clouds at 2000 feet AGL
Weather: no significant weather observed at this time

METAR text: VTBS 151800Z 29005KT 9000 FEW020 26/24 Q1006 NOSIG
Conditions at: VTBS (CHON BURI/SATTAH, TH) observed 1800 UTC 15 July 2019
Temperature: 26.0°C (79°F)
Dewpoint: 24.0°C (75°F) [RH = 89%]
Pressure (altimeter): 29.70 inches Hg (1006.0 mb)
Winds: from the WNW (290 degrees) at 6 MPH (5 knots; 2.6 m/s)
Visibility: 6 miles ( 9 km)
Ceiling: at least 12,000 feet AGL
Clouds: few clouds at 2000 feet AGL
Weather: no significant weather observed at this time

METAR text: VTBS 151730Z 28003KT 9000 FEW020 26/24 Q1006 NOSIG
Conditions at: VTBS (CHON BURI/SATTAH, TH) observed 1730 UTC 15 July 2019
Temperature: 26.0°C (79°F)
Dewpoint: 24.0°C (75°F) [RH = 89%]
Pressure (altimeter): 29.70 inches Hg (1006.0 mb)
Winds: from the W (280 degrees) at 3 MPH (3 knots; 1.5 m/s)
Visibility: 6 miles ( 9 km)
Ceiling: at least 12,000 feet AGL
Clouds: few clouds at 2000 feet AGL
Weather: no significant weather observed at this time

METAR text: VTBS 151700Z VRB02KT 9000 FEW020 27/25 Q1006 NOSIG
Conditions at: VTBS (CHON BURI/SATTAH, TH) observed 1700 UTC 15 July 2019
Temperature: 27.0°C (81°F)
Dewpoint: 25.0°C (77°F) [RH = 89%]
Pressure (altimeter): 29.70 inches Hg (1006.0 mb)
Winds: variable direction winds at 2 MPH (2 knots; 1.0 m/s)
Visibility: 6 miles ( 9 km)
Ceiling: at least 12,000 feet AGL
Clouds: few clouds at 2000 feet AGL
Weather: no significant weather observed at this time

METAR text: VTBS 151630Z 25005KT 9000 FEW020 27/25 Q1007 NOSIG
Conditions at: VTBS (CHON BURI/SATTAH, TH) observed 1630 UTC 15 July 2019
Temperature: 27.0°C (81°F)
Dewpoint: 25.0°C (77°F) [RH = 89%]
Pressure (altimeter): 29.73 inches Hg (1007.0 mb)
Winds: from the WSW (250 degrees) at 6 MPH (5 knots; 2.6 m/s)
Visibility: 6 miles ( 9 km)
Ceiling: at least 12,000 feet AGL
Clouds: few clouds at 2000 feet AGL
Weather: no significant weather observed at this time

METAR text: VTBS 151600Z 28005KT 9000 FEW020 27/25 Q1007 NOSIG
Conditions at: VTBS (CHON BURI/SATTAH, TH) observed 1600 UTC 15 July 2019
Temperature: 27.0°C (81°F)
Dewpoint: 25.0°C (77°F) [RH = 89%]
Pressure (altimeter): 29.73 inches Hg (1007.0 mb)
Winds: from the W (280 degrees) at 6 MPH (5 knots; 2.6 m/s)
Visibility: 6 miles ( 9 km)
Ceiling: at least 12,000 feet AGL
Clouds: few clouds at 2000 feet AGL
Weather: no significant weather observed at this time

METAR text: VTBS 151530Z 30003KT 9000 FEW020 27/25 Q1007 NOSIG
Conditions at: VTBS (CHON BURI/SATTAH, TH) observed 1530 UTC 15 July 2019
Temperature: 27.0°C (81°F)
Dewpoint: 25.0°C (77°F) [RH = 89%]
Pressure (altimeter): 29.73 inches Hg (1007.0 mb)
Winds: from the WNW (300 degrees) at 3 MPH (3 knots; 1.5 m/s)
Visibility: 6 miles ( 9 km)
Ceiling: at least 12,000 feet AGL
Clouds: few clouds at 2000 feet AGL
Weather: no significant weather observed at this time

METAR text: VTBS 151500Z 22005KT 9000 -RA FEW020 27/25 Q1007 NOSIG
Conditions at: VTBS (CHON BURI/SATTAH, TH) observed 1500 UTC 15 July 2019
Temperature: 27.0°C (81°F)
Dewpoint: 25.0°C (77°F) [RH = 89%]
Pressure (altimeter): 29.73 inches Hg (1007.0 mb)
Winds: from the SW (220 degrees) at 6 MPH (5 knots; 2.6 m/s)
Visibility: 6 miles ( 9 km)
Ceiling: at least 12,000 feet AGL
Clouds: few clouds at 2000 feet AGL
Weather: -RA  (light rain)

METAR text: VTBS 151430Z 21005KT 9000 -RA FEW020 BKN100 27/25 Q1006 NOSIG
Conditions at: VTBS (CHON BURI/SATTAH, TH) observed 1430 UTC 15 July 2019
Temperature: 27.0°C (81°F)
Dewpoint: 25.0°C (77°F) [RH = 89%]
Pressure (altimeter): 29.70 inches Hg (1006.0 mb)
Winds: from the SSW (210 degrees) at 6 MPH (5 knots; 2.6 m/s)
Visibility: 6 miles ( 9 km)
Ceiling: 10000 feet AGL
Clouds: few clouds at 2000 feet AGL
broken clouds at 10000 feet AGL
Weather: -RA  (light rain)

METAR text: VTBS 151400Z VRB02KT 050V200 9999 FEW020 BKN100 27/24 Q1006 NOSIG
Conditions at: VTBS (CHON BURI/SATTAH, TH) observed 1400 UTC 15 July 2019
Temperature: 27.0°C (81°F)
Dewpoint: 24.0°C (75°F) [RH = 84%]
Pressure (altimeter): 29.70 inches Hg (1006.0 mb)
Winds: variable direction winds at 2 MPH (2 knots; 1.0 m/s)
Visibility: 6 or more miles (10+ km)
Ceiling: 10000 feet AGL
Clouds: few clouds at 2000 feet AGL
broken clouds at 10000 feet AGL
Weather: no significant weather observed at this time

METAR text: VTBS 151330Z 08006KT 030V140 9999 FEW020 BKN100 27/24 Q1006 NOSIG
Conditions at: VTBS (CHON BURI/SATTAH, TH) observed 1330 UTC 15 July 2019
Temperature: 27.0°C (81°F)
Dewpoint: 24.0°C (75°F) [RH = 84%]
Pressure (altimeter): 29.70 inches Hg (1006.0 mb)
Winds: from the E (80 degrees) at 7 MPH (6 knots; 3.1 m/s)
Visibility: 6 or more miles (10+ km)
Ceiling: 10000 feet AGL
Clouds: few clouds at 2000 feet AGL
broken clouds at 10000 feet AGL
Weather: no significant weather observed at this time

METAR text: VTBS 151300Z 09004KT 050V120 9999 FEW020CB SCT060 BKN100 26/24 Q1005 RETS NOSIG
Conditions at: VTBS (CHON BURI/SATTAH, TH) observed 1300 UTC 15 July 2019
Temperature: 26.0°C (79°F)
Dewpoint: 24.0°C (75°F) [RH = 89%]
Pressure (altimeter): 29.68 inches Hg (1005.0 mb)
Winds: from the E (90 degrees) at 5 MPH (4 knots; 2.1 m/s)
Visibility: 6 or more miles (10+ km)
Ceiling: 10000 feet AGL
Clouds: few clouds at 2000 feet AGL
scattered clouds at 6000 feet AGL
broken clouds at 10000 feet AGL
Weather: no significant weather observed at this time

METAR text: VTBS 151230Z 32003KT 260V040 9000 -TSRA FEW020CB SCT050 BKN100 25/24 Q1005 RERA NOSIG
Conditions at: VTBS (CHON BURI/SATTAH, TH) observed 1230 UTC 15 July 2019
Temperature: 25.0°C (77°F)
Dewpoint: 24.0°C (75°F) [RH = 94%]
Pressure (altimeter): 29.68 inches Hg (1005.0 mb)
Winds: from the NW (320 degrees) at 3 MPH (3 knots; 1.5 m/s)
Visibility: 6 miles ( 9 km)
Ceiling: 10000 feet AGL
Clouds: few clouds at 2000 feet AGL
scattered clouds at 5000 feet AGL
broken clouds at 10000 feet AGL
Weather: -TSRA  (light rain associated with thunderstorm(s))

Forecast for: VTBS (CHON BURI/SATTAH, TH)
Text: TAF VTBS 162300Z 1700/1806 24008KT 9000 FEW020 SCT080
Forecast period: 0000 UTC 17 July 2019 to 0600 UTC 18 July 2019
Forecast type: FROM: standard forecast or significant change
Winds: from the WSW (240 degrees) at 9 MPH (8 knots; 4.1 m/s)
Visibility: 6 miles (9 km)
Ceiling: at least 12,000 feet AGL
Clouds: few clouds at 2000 feet AGL
scattered clouds at 8000 feet AGL
Weather: no significant weather forecast for this period
Text: TEMPO 1708/1714 25010G25KT 5000 TSRA FEW018CB SCT030 BKN080
Forecast period: 0800 to 1400 UTC 17 July 2019
Forecast type: TEMPORARY: The following changes expected for less than half the time period
Winds: from the WSW (250 degrees) at 12 MPH (10 knots; 5.1 m/s)
gusting to 29 MPH (25 knots; 12.9 m/s)
Visibility: 3 miles (5 km)
Ceiling: 8000 feet AGL
Clouds: few clouds at 1800 feet AGL
scattered clouds at 3000 feet AGL
broken clouds at 8000 feet AGL
Weather: TSRA  (rain associated with thunderstorm(s))